sensor_id;sensor_type;location;lat;lon;timestamp;P1;durP1;ratioP1;P2;durP2;ratioP2
10013;SDS011;45684;48.358;10.746;2023-08-08T00:00:06;8.27;;;7.87;;
10013;SDS011;45684;48.358;10.746;2023-08-08T00:02:37;8.53;;;8.23;;
10013;SDS011;45684;48.358;10.746;2023-08-08T00:05:06;8.60;;;8.23;;
10013;SDS011;45684;48.358;10.746;2023-08-08T00:07:36;9.17;;;8.77;;
10013;SDS011;45684;48.358;10.746;2023-08-08T00:10:04;8.60;;;8.23;;
10013;SDS011;45684;48.358;10.746;2023-08-08T00:12:33;9.20;;;8.90;;
10013;SDS011;45684;48.358;10.746;2023-08-08T00:15:01;9.97;;;9.47;;
10013;SDS011;45684;48.358;10.746;2023-08-08T00:17:28;10.13;;;9.63;;
10013;SDS011;45684;48.358;10.746;2023-08-08T00:19:58;9.97;;;9.37;;
10013;SDS011;45684;48.358;10.746;2023-08-08T00:22:26;10.03;;;9.63;;
10013;SDS011;45684;48.358;10.746;2023-08-08T00:24:53;8.93;;;8.53;;
10013;SDS011;45684;48.358;10.746;2023-08-08T00:27:21;10.20;;;9.60;;
10013;SDS011;45684;48.358;10.746;2023-08-08T00:29:49;9.23;;;8.93;;
10013;SDS011;45684;48.358;10.746;2023-08-08T00:32:19;11.30;;;10.90;;
10013;SDS011;45684;48.358;10.746;2023-08-08T00:34:47;10.17;;;9.77;;
10013;SDS011;45684;48.358;10.746;2023-08-08T00:37:17;9.63;;;9.23;;
10013;SDS011;45684;48.358;10.746;2023-08-08T00:39:45;9.47;;;9.07;;
10013;SDS011;45684;48.358;10.746;2023-08-08T00:42:13;9.50;;;9.10;;
10013;SDS011;45684;48.358;10.746;2023-08-08T00:44:41;11.87;;;11.37;;
10013;SDS011;45684;48.358;10.746;2023-08-08T00:47:09;12.37;;;11.77;;
10013;SDS011;45684;48.358;10.746;2023-08-08T00:49:37;13.10;;;12.60;;
10013;SDS011;45684;48.358;10.746;2023-08-08T00:52:06;12.73;;;12.23;;
10013;SDS011;45684;48.358;10.746;2023-08-08T00:54:36;12.33;;;11.83;;
10013;SDS011;45684;48.358;10.746;2023-08-08T00:57:04;13.00;;;12.33;;
10013;SDS011;45684;48.358;10.746;2023-08-08T00:59:33;13.40;;;12.90;;
10013;SDS011;45684;48.358;10.746;2023-08-08T01:02:00;12.43;;;11.93;;
10013;SDS011;45684;48.358;10.746;2023-08-08T01:04:29;12.53;;;12.00;;
10013;SDS011;45684;48.358;10.746;2023-08-08T01:06:58;11.40;;;10.90;;
10013;SDS011;45684;48.358;10.746;2023-08-08T01:09:32;11.20;;;10.70;;
10013;SDS011;45684;48.358;10.746;2023-08-08T01:12:05;11.53;;;11.00;;
10013;SDS011;45684;48.358;10.746;2023-08-08T01:14:37;12.47;;;11.97;;
10013;SDS011;45684;48.358;10.746;2023-08-08T01:17:07;10.30;;;9.90;;
10013;SDS011;45684;48.358;10.746;2023-08-08T01:19:36;10.80;;;10.40;;
10013;SDS011;45684;48.358;10.746;2023-08-08T01:22:05;10.20;;;9.70;;
10013;SDS011;45684;48.358;10.746;2023-08-08T01:24:37;9.60;;;9.20;;
10013;SDS011;45684;48.358;10.746;2023-08-08T01:27:06;9.10;;;8.70;;
10013;SDS011;45684;48.358;10.746;2023-08-08T01:29:34;9.33;;;8.83;;
10013;SDS011;45684;48.358;10.746;2023-08-08T01:32:02;9.40;;;9.10;;
10013;SDS011;45684;48.358;10.746;2023-08-08T01:34:30;10.37;;;9.97;;
10013;SDS011;45684;48.358;10.746;2023-08-08T01:36:59;10.30;;;9.80;;
10013;SDS011;45684;48.358;10.746;2023-08-08T01:39:32;11.47;;;10.97;;
10013;SDS011;45684;48.358;10.746;2023-08-08T01:42:02;11.90;;;11.40;;
10013;SDS011;45684;48.358;10.746;2023-08-08T01:44:33;12.47;;;11.97;;
10013;SDS011;45684;48.358;10.746;2023-08-08T01:47:02;12.20;;;11.70;;
10013;SDS011;45684;48.358;10.746;2023-08-08T01:49:30;12.03;;;11.53;;
10013;SDS011;45684;48.358;10.746;2023-08-08T01:51:58;9.87;;;9.47;;
10013;SDS011;45684;48.358;10.746;2023-08-08T01:54:27;9.73;;;9.33;;
10013;SDS011;45684;48.358;10.746;2023-08-08T01:56:54;9.73;;;9.33;;
10013;SDS011;45684;48.358;10.746;2023-08-08T01:59:24;11.63;;;11.13;;
10013;SDS011;45684;48.358;10.746;2023-08-08T02:01:52;12.13;;;11.67;;
10013;SDS011;45684;48.358;10.746;2023-08-08T02:04:20;9.73;;;9.40;;
10013;SDS011;45684;48.358;10.746;2023-08-08T02:06:48;8.93;;;8.50;;
10013;SDS011;45684;48.358;10.746;2023-08-08T02:09:16;11.30;;;10.87;;
10013;SDS011;45684;48.358;10.746;2023-08-08T02:11:47;9.57;;;9.17;;
10013;SDS011;45684;48.358;10.746;2023-08-08T02:14:15;9.63;;;9.27;;
10013;SDS011;45684;48.358;10.746;2023-08-08T02:16:44;9.63;;;9.27;;
10013;SDS011;45684;48.358;10.746;2023-08-08T02:19:12;10.67;;;10.13;;
10013;SDS011;45684;48.358;10.746;2023-08-08T02:21:41;9.70;;;9.30;;
10013;SDS011;45684;48.358;10.746;2023-08-08T02:24:09;9.87;;;9.47;;
10013;SDS011;45684;48.358;10.746;2023-08-08T02:26:37;10.23;;;9.73;;
10013;SDS011;45684;48.358;10.746;2023-08-08T02:29:07;9.43;;;9.07;;
10013;SDS011;45684;48.358;10.746;2023-08-08T02:31:35;9.70;;;9.30;;
10013;SDS011;45684;48.358;10.746;2023-08-08T02:34:04;10.97;;;10.47;;
10013;SDS011;45684;48.358;10.746;2023-08-08T02:36:32;11.57;;;11.17;;
10013;SDS011;45684;48.358;10.746;2023-08-08T02:39:01;12.17;;;11.77;;
10013;SDS011;45684;48.358;10.746;2023-08-08T02:41:29;11.37;;;10.97;;
10013;SDS011;45684;48.358;10.746;2023-08-08T02:43:57;11.93;;;11.43;;
10013;SDS011;45684;48.358;10.746;2023-08-08T02:46:25;12.03;;;11.23;;
10013;SDS011;45684;48.358;10.746;2023-08-08T02:48:53;11.53;;;11.07;;
10013;SDS011;45684;48.358;10.746;2023-08-08T02:51:23;11.50;;;10.90;;
10013;SDS011;45684;48.358;10.746;2023-08-08T02:53:50;11.73;;;11.33;;
10013;SDS011;45684;48.358;10.746;2023-08-08T02:56:19;11.63;;;11.23;;
10013;SDS011;45684;48.358;10.746;2023-08-08T02:58:49;11.70;;;11.10;;
10013;SDS011;45684;48.358;10.746;2023-08-08T03:01:17;11.40;;;11.00;;
10013;SDS011;45684;48.358;10.746;2023-08-08T03:03:46;12.00;;;11.50;;
10013;SDS011;45684;48.358;10.746;2023-08-08T03:06:16;11.67;;;11.17;;
10013;SDS011;45684;48.358;10.746;2023-08-08T03:08:45;11.40;;;11.00;;
10013;SDS011;45684;48.358;10.746;2023-08-08T03:11:13;12.13;;;11.53;;
10013;SDS011;45684;48.358;10.746;2023-08-08T03:13:42;11.13;;;10.67;;
10013;SDS011;45684;48.358;10.746;2023-08-08T03:16:10;13.33;;;12.77;;
10013;SDS011;45684;48.358;10.746;2023-08-08T03:18:38;12.33;;;11.83;;
10013;SDS011;45684;48.358;10.746;2023-08-08T03:21:06;10.90;;;10.47;;
10013;SDS011;45684;48.358;10.746;2023-08-08T03:23:34;12.70;;;12.10;;
10013;SDS011;45684;48.358;10.746;2023-08-08T03:26:03;12.57;;;12.07;;
10013;SDS011;45684;48.358;10.746;2023-08-08T03:28:31;12.13;;;11.63;;
10013;SDS011;45684;48.358;10.746;2023-08-08T03:30:59;13.00;;;12.50;;
10013;SDS011;45684;48.358;10.746;2023-08-08T03:33:30;12.13;;;11.63;;
10013;SDS011;45684;48.358;10.746;2023-08-08T03:36:00;10.90;;;10.40;;
10013;SDS011;45684;48.358;10.746;2023-08-08T03:38:28;11.97;;;11.47;;
10013;SDS011;45684;48.358;10.746;2023-08-08T03:40:56;10.47;;;9.93;;
10013;SDS011;45684;48.358;10.746;2023-08-08T03:43:25;11.33;;;10.93;;
10013;SDS011;45684;48.358;10.746;2023-08-08T03:45:53;10.80;;;10.30;;
10013;SDS011;45684;48.358;10.746;2023-08-08T03:48:20;11.30;;;10.90;;
10013;SDS011;45684;48.358;10.746;2023-08-08T03:50:49;11.13;;;10.67;;
10013;SDS011;45684;48.358;10.746;2023-08-08T03:53:17;13.93;;;13.37;;
10013;SDS011;45684;48.358;10.746;2023-08-08T03:55:45;12.43;;;11.93;;
10013;SDS011;45684;48.358;10.746;2023-08-08T03:58:14;12.47;;;11.97;;
10013;SDS011;45684;48.358;10.746;2023-08-08T04:00:44;11.77;;;11.17;;
10013;SDS011;45684;48.358;10.746;2023-08-08T04:03:13;11.67;;;11.27;;
10013;SDS011;45684;48.358;10.746;2023-08-08T04:05:43;13.07;;;12.43;;
10013;SDS011;45684;48.358;10.746;2023-08-08T04:08:14;12.70;;;12.10;;
10013;SDS011;45684;48.358;10.746;2023-08-08T04:10:42;11.37;;;10.80;;
10013;SDS011;45684;48.358;10.746;2023-08-08T04:13:11;10.43;;;10.03;;
10013;SDS011;45684;48.358;10.746;2023-08-08T04:15:38;9.57;;;9.07;;
10013;SDS011;45684;48.358;10.746;2023-08-08T04:18:08;8.83;;;8.53;;
10013;SDS011;45684;48.358;10.746;2023-08-08T04:20:36;8.70;;;8.37;;
10013;SDS011;45684;48.358;10.746;2023-08-08T04:23:04;8.43;;;8.03;;
10013;SDS011;45684;48.358;10.746;2023-08-08T04:25:32;9.07;;;8.47;;
10013;SDS011;45684;48.358;10.746;2023-08-08T04:28:00;9.17;;;8.83;;
10013;SDS011;45684;48.358;10.746;2023-08-08T04:30:27;9.60;;;9.17;;
10013;SDS011;45684;48.358;10.746;2023-08-08T04:32:55;10.33;;;9.83;;
10013;SDS011;45684;48.358;10.746;2023-08-08T04:35:25;8.37;;;7.97;;
10013;SDS011;45684;48.358;10.746;2023-08-08T04:37:52;8.73;;;8.33;;
10013;SDS011;45684;48.358;10.746;2023-08-08T04:40:20;8.27;;;7.97;;
10013;SDS011;45684;48.358;10.746;2023-08-08T04:42:48;8.13;;;7.83;;
10013;SDS011;45684;48.358;10.746;2023-08-08T04:45:17;7.90;;;7.60;;
10013;SDS011;45684;48.358;10.746;2023-08-08T04:47:44;10.67;;;10.17;;
10013;SDS011;45684;48.358;10.746;2023-08-08T04:50:12;9.30;;;8.80;;
10013;SDS011;45684;48.358;10.746;2023-08-08T04:52:42;6.93;;;6.63;;
10013;SDS011;45684;48.358;10.746;2023-08-08T04:55:09;7.27;;;6.83;;
10013;SDS011;45684;48.358;10.746;2023-08-08T04:57:37;6.60;;;6.30;;
10013;SDS011;45684;48.358;10.746;2023-08-08T05:00:05;6.53;;;6.13;;
10013;SDS011;45684;48.358;10.746;2023-08-08T05:02:35;6.27;;;6.03;;
10013;SDS011;45684;48.358;10.746;2023-08-08T05:05:05;6.93;;;6.63;;
10013;SDS011;45684;48.358;10.746;2023-08-08T05:07:33;6.63;;;6.33;;
10013;SDS011;45684;48.358;10.746;2023-08-08T05:10:05;7.97;;;7.57;;
10013;SDS011;45684;48.358;10.746;2023-08-08T05:12:34;8.70;;;8.37;;
10013;SDS011;45684;48.358;10.746;2023-08-08T05:15:02;10.30;;;9.90;;
10013;SDS011;45684;48.358;10.746;2023-08-08T05:17:30;8.23;;;7.73;;
10013;SDS011;45684;48.358;10.746;2023-08-08T05:19:58;7.57;;;7.27;;
10013;SDS011;45684;48.358;10.746;2023-08-08T05:22:26;7.03;;;6.73;;
10013;SDS011;45684;48.358;10.746;2023-08-08T05:24:54;7.07;;;6.70;;
10013;SDS011;45684;48.358;10.746;2023-08-08T05:27:23;7.30;;;6.97;;
10013;SDS011;45684;48.358;10.746;2023-08-08T05:29:51;6.10;;;5.57;;
10013;SDS011;45684;48.358;10.746;2023-08-08T05:32:19;4.47;;;4.27;;
10013;SDS011;45684;48.358;10.746;2023-08-08T05:34:46;4.97;;;4.77;;
10013;SDS011;45684;48.358;10.746;2023-08-08T05:37:15;5.10;;;4.80;;
10013;SDS011;45684;48.358;10.746;2023-08-08T05:39:43;5.00;;;4.80;;
10013;SDS011;45684;48.358;10.746;2023-08-08T05:42:11;4.70;;;4.50;;
10013;SDS011;45684;48.358;10.746;2023-08-08T05:44:40;4.90;;;4.70;;
10013;SDS011;45684;48.358;10.746;2023-08-08T05:47:09;4.90;;;4.70;;
10013;SDS011;45684;48.358;10.746;2023-08-08T05:49:38;5.10;;;4.70;;
10013;SDS011;45684;48.358;10.746;2023-08-08T05:52:08;5.00;;;4.80;;
10013;SDS011;45684;48.358;10.746;2023-08-08T05:54:36;5.07;;;4.80;;
10013;SDS011;45684;48.358;10.746;2023-08-08T05:57:04;5.00;;;4.70;;
10013;SDS011;45684;48.358;10.746;2023-08-08T05:59:32;4.70;;;4.40;;
10013;SDS011;45684;48.358;10.746;2023-08-08T06:02:02;4.77;;;4.53;;
10013;SDS011;45684;48.358;10.746;2023-08-08T06:04:30;4.80;;;4.50;;
10013;SDS011;45684;48.358;10.746;2023-08-08T06:06:58;4.83;;;4.63;;
10013;SDS011;45684;48.358;10.746;2023-08-08T06:09:26;4.50;;;4.30;;
10013;SDS011;45684;48.358;10.746;2023-08-08T06:11:54;4.63;;;4.33;;
10013;SDS011;45684;48.358;10.746;2023-08-08T06:14:22;4.27;;;4.07;;
10013;SDS011;45684;48.358;10.746;2023-08-08T06:16:50;4.47;;;4.23;;
10013;SDS011;45684;48.358;10.746;2023-08-08T06:19:19;4.53;;;4.33;;
10013;SDS011;45684;48.358;10.746;2023-08-08T06:21:47;4.60;;;4.40;;
10013;SDS011;45684;48.358;10.746;2023-08-08T06:24:15;4.30;;;4.10;;
10013;SDS011;45684;48.358;10.746;2023-08-08T06:26:43;4.40;;;4.20;;
10013;SDS011;45684;48.358;10.746;2023-08-08T06:29:11;4.70;;;4.50;;
10013;SDS011;45684;48.358;10.746;2023-08-08T06:31:40;4.57;;;4.20;;
10013;SDS011;45684;48.358;10.746;2023-08-08T06:34:08;4.80;;;4.50;;
10013;SDS011;45684;48.358;10.746;2023-08-08T06:36:37;4.93;;;4.63;;
10013;SDS011;45684;48.358;10.746;2023-08-08T06:39:05;4.80;;;4.60;;
10013;SDS011;45684;48.358;10.746;2023-08-08T06:41:33;4.47;;;4.27;;
10013;SDS011;45684;48.358;10.746;2023-08-08T06:44:01;4.60;;;4.30;;
10013;SDS011;45684;48.358;10.746;2023-08-08T06:46:29;4.30;;;4.20;;
10013;SDS011;45684;48.358;10.746;2023-08-08T06:48:57;4.83;;;4.63;;
10013;SDS011;45684;48.358;10.746;2023-08-08T06:51:26;4.67;;;4.47;;
10013;SDS011;45684;48.358;10.746;2023-08-08T06:53:55;4.80;;;4.50;;
10013;SDS011;45684;48.358;10.746;2023-08-08T06:56:23;4.33;;;4.13;;
10013;SDS011;45684;48.358;10.746;2023-08-08T06:58:52;4.10;;;3.90;;
10013;SDS011;45684;48.358;10.746;2023-08-08T07:01:20;4.50;;;4.30;;
10013;SDS011;45684;48.358;10.746;2023-08-08T07:03:48;4.60;;;4.40;;
10013;SDS011;45684;48.358;10.746;2023-08-08T07:06:17;4.80;;;4.60;;
10013;SDS011;45684;48.358;10.746;2023-08-08T07:08:45;4.63;;;4.43;;
10013;SDS011;45684;48.358;10.746;2023-08-08T07:11:14;4.80;;;4.50;;
10013;SDS011;45684;48.358;10.746;2023-08-08T07:13:42;4.90;;;4.60;;
10013;SDS011;45684;48.358;10.746;2023-08-08T07:16:10;4.60;;;4.40;;
10013;SDS011;45684;48.358;10.746;2023-08-08T07:18:38;4.80;;;4.60;;
10013;SDS011;45684;48.358;10.746;2023-08-08T07:21:06;5.10;;;4.90;;
10013;SDS011;45684;48.358;10.746;2023-08-08T07:23:33;4.70;;;4.50;;
10013;SDS011;45684;48.358;10.746;2023-08-08T07:26:01;4.87;;;4.67;;
10013;SDS011;45684;48.358;10.746;2023-08-08T07:28:31;4.80;;;4.50;;
10013;SDS011;45684;48.358;10.746;2023-08-08T07:30:59;4.17;;;4.07;;
10013;SDS011;45684;48.358;10.746;2023-08-08T07:33:27;4.73;;;4.53;;
10013;SDS011;45684;48.358;10.746;2023-08-08T07:35:55;4.77;;;4.57;;
10013;SDS011;45684;48.358;10.746;2023-08-08T07:38:22;4.50;;;4.30;;
10013;SDS011;45684;48.358;10.746;2023-08-08T07:40:50;4.50;;;4.20;;
10013;SDS011;45684;48.358;10.746;2023-08-08T07:43:18;4.63;;;4.43;;
10013;SDS011;45684;48.358;10.746;2023-08-08T07:45:52;4.73;;;4.53;;
10013;SDS011;45684;48.358;10.746;2023-08-08T07:48:20;4.90;;;4.70;;
10013;SDS011;45684;48.358;10.746;2023-08-08T07:50:48;5.00;;;4.60;;
10013;SDS011;45684;48.358;10.746;2023-08-08T07:53:16;5.07;;;4.87;;
10013;SDS011;45684;48.358;10.746;2023-08-08T07:55:44;4.73;;;4.53;;
10013;SDS011;45684;48.358;10.746;2023-08-08T07:58:13;5.20;;;4.90;;
10013;SDS011;45684;48.358;10.746;2023-08-08T08:00:41;5.10;;;4.90;;
10013;SDS011;45684;48.358;10.746;2023-08-08T08:03:17;5.23;;;5.03;;
10013;SDS011;45684;48.358;10.746;2023-08-08T08:05:45;5.30;;;5.03;;
10013;SDS011;45684;48.358;10.746;2023-08-08T08:08:13;5.20;;;5.00;;
10013;SDS011;45684;48.358;10.746;2023-08-08T08:10:41;5.40;;;5.10;;
10013;SDS011;45684;48.358;10.746;2023-08-08T08:13:09;5.20;;;5.00;;
10013;SDS011;45684;48.358;10.746;2023-08-08T08:15:38;5.00;;;4.80;;
10013;SDS011;45684;48.358;10.746;2023-08-08T08:18:06;5.10;;;4.90;;
10013;SDS011;45684;48.358;10.746;2023-08-08T08:20:35;5.43;;;5.13;;
10013;SDS011;45684;48.358;10.746;2023-08-08T08:23:03;5.30;;;5.00;;
10013;SDS011;45684;48.358;10.746;2023-08-08T08:25:34;5.80;;;5.33;;
10013;SDS011;45684;48.358;10.746;2023-08-08T08:28:04;5.13;;;4.87;;
10013;SDS011;45684;48.358;10.746;2023-08-08T08:30:32;5.10;;;4.90;;
10013;SDS011;45684;48.358;10.746;2023-08-08T08:33:00;4.80;;;4.60;;
10013;SDS011;45684;48.358;10.746;2023-08-08T08:35:28;4.83;;;4.63;;
10013;SDS011;45684;48.358;10.746;2023-08-08T08:37:57;4.60;;;4.40;;
10013;SDS011;45684;48.358;10.746;2023-08-08T08:40:25;4.90;;;4.60;;
10013;SDS011;45684;48.358;10.746;2023-08-08T08:42:55;4.50;;;4.30;;
10013;SDS011;45684;48.358;10.746;2023-08-08T08:45:23;4.80;;;4.60;;
10013;SDS011;45684;48.358;10.746;2023-08-08T08:47:51;4.80;;;4.50;;
10013;SDS011;45684;48.358;10.746;2023-08-08T08:50:24;5.17;;;4.77;;
10013;SDS011;45684;48.358;10.746;2023-08-08T08:52:54;4.73;;;4.40;;
10013;SDS011;45684;48.358;10.746;2023-08-08T08:55:26;5.00;;;4.80;;
10013;SDS011;45684;48.358;10.746;2023-08-08T08:57:55;4.90;;;4.70;;
10013;SDS011;45684;48.358;10.746;2023-08-08T09:00:23;4.60;;;4.40;;
10013;SDS011;45684;48.358;10.746;2023-08-08T09:02:53;12.80;;;11.80;;
10013;SDS011;45684;48.358;10.746;2023-08-08T09:05:22;6.50;;;6.20;;
10013;SDS011;45684;48.358;10.746;2023-08-08T09:07:52;6.27;;;5.97;;
10013;SDS011;45684;48.358;10.746;2023-08-08T09:10:21;5.40;;;5.10;;
10013;SDS011;45684;48.358;10.746;2023-08-08T09:12:52;5.33;;;5.00;;
10013;SDS011;45684;48.358;10.746;2023-08-08T09:15:20;4.83;;;4.53;;
10013;SDS011;45684;48.358;10.746;2023-08-08T09:17:48;5.23;;;4.83;;
10013;SDS011;45684;48.358;10.746;2023-08-08T09:20:16;4.90;;;4.70;;
10013;SDS011;45684;48.358;10.746;2023-08-08T09:22:44;4.40;;;4.20;;
10013;SDS011;45684;48.358;10.746;2023-08-08T09:25:13;4.55;;;4.20;;
10013;SDS011;45684;48.358;10.746;2023-08-08T09:27:42;4.85;;;4.57;;
10013;SDS011;45684;48.358;10.746;2023-08-08T09:30:10;4.50;;;4.30;;
10013;SDS011;45684;48.358;10.746;2023-08-08T09:32:39;4.70;;;4.40;;
10013;SDS011;45684;48.358;10.746;2023-08-08T09:35:07;4.55;;;4.28;;
10013;SDS011;45684;48.358;10.746;2023-08-08T09:37:36;5.00;;;4.40;;
10013;SDS011;45684;48.358;10.746;2023-08-08T09:40:05;4.68;;;4.40;;
10013;SDS011;45684;48.358;10.746;2023-08-08T09:42:34;4.30;;;4.10;;
10013;SDS011;45684;48.358;10.746;2023-08-08T09:45:05;5.05;;;4.75;;
10013;SDS011;45684;48.358;10.746;2023-08-08T09:47:33;4.68;;;4.47;;
10013;SDS011;45684;48.358;10.746;2023-08-08T09:50:02;4.80;;;4.50;;
10013;SDS011;45684;48.358;10.746;2023-08-08T09:52:33;4.40;;;4.20;;
10013;SDS011;45684;48.358;10.746;2023-08-08T09:55:02;5.53;;;5.03;;
10013;SDS011;45684;48.358;10.746;2023-08-08T09:57:36;4.90;;;4.70;;
10013;SDS011;45684;48.358;10.746;2023-08-08T10:00:08;5.40;;;5.15;;
10013;SDS011;45684;48.358;10.746;2023-08-08T10:02:42;4.65;;;4.43;;
10013;SDS011;45684;48.358;10.746;2023-08-08T10:05:11;4.70;;;4.40;;
10013;SDS011;45684;48.358;10.746;2023-08-08T10:07:41;5.13;;;4.82;;
10013;SDS011;45684;48.358;10.746;2023-08-08T10:10:09;5.30;;;5.07;;
10013;SDS011;45684;48.358;10.746;2023-08-08T10:12:38;5.47;;;5.07;;
10013;SDS011;45684;48.358;10.746;2023-08-08T10:15:08;4.85;;;4.63;;
10013;SDS011;45684;48.358;10.746;2023-08-08T10:17:37;4.68;;;4.45;;
10013;SDS011;45684;48.358;10.746;2023-08-08T10:20:07;4.38;;;4.10;;
10013;SDS011;45684;48.358;10.746;2023-08-08T10:22:41;4.30;;;4.00;;
10013;SDS011;45684;48.358;10.746;2023-08-08T10:25:17;5.00;;;4.70;;
10013;SDS011;45684;48.358;10.746;2023-08-08T10:27:46;4.57;;;4.22;;
10013;SDS011;45684;48.358;10.746;2023-08-08T10:30:15;5.50;;;4.93;;
10013;SDS011;45684;48.358;10.746;2023-08-08T10:32:44;4.30;;;4.10;;
10013;SDS011;45684;48.358;10.746;2023-08-08T10:35:13;4.20;;;3.92;;
10013;SDS011;45684;48.358;10.746;2023-08-08T10:37:52;4.70;;;4.30;;
10013;SDS011;45684;48.358;10.746;2023-08-08T10:40:20;4.88;;;4.65;;
10013;SDS011;45684;48.358;10.746;2023-08-08T10:42:48;5.40;;;4.72;;
10013;SDS011;45684;48.358;10.746;2023-08-08T10:45:18;4.82;;;4.50;;
10013;SDS011;45684;48.358;10.746;2023-08-08T10:47:46;4.53;;;4.32;;
10013;SDS011;45684;48.358;10.746;2023-08-08T10:50:14;7.28;;;6.88;;
10013;SDS011;45684;48.358;10.746;2023-08-08T10:52:50;5.43;;;5.10;;
10013;SDS011;45684;48.358;10.746;2023-08-08T10:55:20;4.82;;;4.53;;
10013;SDS011;45684;48.358;10.746;2023-08-08T10:57:56;4.90;;;4.50;;
10013;SDS011;45684;48.358;10.746;2023-08-08T11:00:28;4.75;;;4.45;;
10013;SDS011;45684;48.358;10.746;2023-08-08T11:02:58;4.95;;;4.65;;
10013;SDS011;45684;48.358;10.746;2023-08-08T11:05:28;4.18;;;3.90;;
10013;SDS011;45684;48.358;10.746;2023-08-08T11:07:57;4.60;;;4.30;;
10013;SDS011;45684;48.358;10.746;2023-08-08T11:10:25;4.80;;;4.40;;
10013;SDS011;45684;48.358;10.746;2023-08-08T11:12:57;4.20;;;4.00;;
10013;SDS011;45684;48.358;10.746;2023-08-08T11:15:30;4.50;;;4.20;;
10013;SDS011;45684;48.358;10.746;2023-08-08T11:17:59;4.60;;;4.30;;
10013;SDS011;45684;48.358;10.746;2023-08-08T11:20:29;5.30;;;4.70;;
10013;SDS011;45684;48.358;10.746;2023-08-08T11:22:58;4.68;;;4.47;;
10013;SDS011;45684;48.358;10.746;2023-08-08T11:25:27;4.97;;;4.57;;
10013;SDS011;45684;48.358;10.746;2023-08-08T11:27:57;7.03;;;5.30;;
10013;SDS011;45684;48.358;10.746;2023-08-08T11:30:27;7.20;;;5.00;;
10013;SDS011;45684;48.358;10.746;2023-08-08T11:32:59;4.72;;;4.35;;
10013;SDS011;45684;48.358;10.746;2023-08-08T11:35:30;4.68;;;4.40;;
10013;SDS011;45684;48.358;10.746;2023-08-08T11:38:02;5.03;;;4.63;;
10013;SDS011;45684;48.358;10.746;2023-08-08T11:40:31;4.40;;;4.10;;
10013;SDS011;45684;48.358;10.746;2023-08-08T11:43:00;4.90;;;4.50;;
10013;SDS011;45684;48.358;10.746;2023-08-08T11:45:30;4.82;;;4.63;;
10013;SDS011;45684;48.358;10.746;2023-08-08T11:47:59;12.68;;;5.65;;
10013;SDS011;45684;48.358;10.746;2023-08-08T11:50:27;5.30;;;5.00;;
10013;SDS011;45684;48.358;10.746;2023-08-08T11:52:56;4.50;;;4.30;;
10013;SDS011;45684;48.358;10.746;2023-08-08T11:55:27;4.47;;;4.28;;
10013;SDS011;45684;48.358;10.746;2023-08-08T11:57:55;4.65;;;4.35;;
10013;SDS011;45684;48.358;10.746;2023-08-08T12:00:26;5.38;;;4.95;;
10013;SDS011;45684;48.358;10.746;2023-08-08T12:02:57;5.30;;;4.60;;
10013;SDS011;45684;48.358;10.746;2023-08-08T12:05:28;4.80;;;4.40;;
10013;SDS011;45684;48.358;10.746;2023-08-08T12:07:58;4.18;;;3.97;;
10013;SDS011;45684;48.358;10.746;2023-08-08T12:10:26;5.10;;;4.70;;
10013;SDS011;45684;48.358;10.746;2023-08-08T12:12:55;4.60;;;4.30;;
10013;SDS011;45684;48.358;10.746;2023-08-08T12:15:27;4.72;;;4.43;;
10013;SDS011;45684;48.358;10.746;2023-08-08T12:17:58;4.25;;;4.03;;
10013;SDS011;45684;48.358;10.746;2023-08-08T12:20:27;4.65;;;4.10;;
10013;SDS011;45684;48.358;10.746;2023-08-08T12:22:57;4.13;;;3.80;;
10013;SDS011;45684;48.358;10.746;2023-08-08T12:25:25;3.72;;;3.63;;
10013;SDS011;45684;48.358;10.746;2023-08-08T12:27:53;4.72;;;4.40;;
10013;SDS011;45684;48.358;10.746;2023-08-08T12:30:21;4.00;;;3.80;;
10013;SDS011;45684;48.358;10.746;2023-08-08T12:32:49;4.60;;;4.40;;
10013;SDS011;45684;48.358;10.746;2023-08-08T12:35:18;5.15;;;4.90;;
10013;SDS011;45684;48.358;10.746;2023-08-08T12:37:46;5.18;;;4.88;;
10013;SDS011;45684;48.358;10.746;2023-08-08T12:40:14;4.80;;;4.50;;
10013;SDS011;45684;48.358;10.746;2023-08-08T12:42:42;4.03;;;3.83;;
10013;SDS011;45684;48.358;10.746;2023-08-08T12:45:10;4.00;;;3.80;;
10013;SDS011;45684;48.358;10.746;2023-08-08T12:47:38;4.38;;;4.03;;
10013;SDS011;45684;48.358;10.746;2023-08-08T12:50:06;4.18;;;3.88;;
10013;SDS011;45684;48.358;10.746;2023-08-08T12:52:36;4.22;;;4.03;;
10013;SDS011;45684;48.358;10.746;2023-08-08T12:55:06;4.60;;;4.22;;
10013;SDS011;45684;48.358;10.746;2023-08-08T12:57:35;4.90;;;4.70;;
10013;SDS011;45684;48.358;10.746;2023-08-08T13:00:04;4.95;;;4.72;;
10013;SDS011;45684;48.358;10.746;2023-08-08T13:02:35;4.95;;;4.65;;
10013;SDS011;45684;48.358;10.746;2023-08-08T13:05:03;4.60;;;4.40;;
10013;SDS011;45684;48.358;10.746;2023-08-08T13:07:33;4.40;;;4.20;;
10013;SDS011;45684;48.358;10.746;2023-08-08T13:10:02;4.50;;;4.20;;
10013;SDS011;45684;48.358;10.746;2023-08-08T13:12:31;3.85;;;3.55;;
10013;SDS011;45684;48.358;10.746;2023-08-08T13:19:23;4.53;;;4.28;;
10013;SDS011;45684;48.358;10.746;2023-08-08T13:21:54;4.47;;;4.28;;
10013;SDS011;45684;48.358;10.746;2023-08-08T13:24:22;4.30;;;4.00;;
10013;SDS011;45684;48.358;10.746;2023-08-08T13:26:51;4.70;;;4.30;;
10013;SDS011;45684;48.358;10.746;2023-08-08T13:29:19;4.55;;;4.35;;
10013;SDS011;45684;48.358;10.746;2023-08-08T13:31:47;4.90;;;4.70;;
10013;SDS011;45684;48.358;10.746;2023-08-08T13:34:15;5.20;;;4.90;;
10013;SDS011;45684;48.358;10.746;2023-08-08T13:36:43;5.10;;;4.80;;
10013;SDS011;45684;48.358;10.746;2023-08-08T13:39:10;5.25;;;5.05;;
10013;SDS011;45684;48.358;10.746;2023-08-08T13:41:39;4.85;;;4.57;;
10013;SDS011;45684;48.358;10.746;2023-08-08T13:44:09;5.10;;;4.90;;
10013;SDS011;45684;48.358;10.746;2023-08-08T13:46:37;4.68;;;4.47;;
10013;SDS011;45684;48.358;10.746;2023-08-08T13:49:04;4.85;;;4.65;;
10013;SDS011;45684;48.358;10.746;2023-08-08T13:51:32;4.45;;;4.15;;
10013;SDS011;45684;48.358;10.746;2023-08-08T13:54:00;4.47;;;4.18;;
10013;SDS011;45684;48.358;10.746;2023-08-08T13:56:28;4.97;;;4.78;;
10013;SDS011;45684;48.358;10.746;2023-08-08T13:58:56;4.60;;;4.40;;
10013;SDS011;45684;48.358;10.746;2023-08-08T14:01:25;4.13;;;3.92;;
10013;SDS011;45684;48.358;10.746;2023-08-08T14:03:53;6.50;;;4.35;;
10013;SDS011;45684;48.358;10.746;2023-08-08T14:06:21;4.50;;;4.10;;
10013;SDS011;45684;48.358;10.746;2023-08-08T14:08:48;4.45;;;4.25;;
10013;SDS011;45684;48.358;10.746;2023-08-08T14:11:18;3.85;;;3.65;;
10013;SDS011;45684;48.358;10.746;2023-08-08T14:13:46;4.28;;;3.90;;
10013;SDS011;45684;48.358;10.746;2023-08-08T14:16:14;4.15;;;3.95;;
10013;SDS011;45684;48.358;10.746;2023-08-08T14:18:43;4.20;;;3.90;;
10013;SDS011;45684;48.358;10.746;2023-08-08T14:21:11;4.30;;;4.00;;
10013;SDS011;45684;48.358;10.746;2023-08-08T14:23:39;4.50;;;4.25;;
10013;SDS011;45684;48.358;10.746;2023-08-08T14:26:07;4.00;;;3.80;;
10013;SDS011;45684;48.358;10.746;2023-08-08T14:28:35;4.30;;;4.10;;
10013;SDS011;45684;48.358;10.746;2023-08-08T14:31:02;4.45;;;4.15;;
10013;SDS011;45684;48.358;10.746;2023-08-08T14:33:32;4.50;;;4.25;;
10013;SDS011;45684;48.358;10.746;2023-08-08T14:36:01;4.30;;;4.10;;
10013;SDS011;45684;48.358;10.746;2023-08-08T14:38:33;4.72;;;4.40;;
10013;SDS011;45684;48.358;10.746;2023-08-08T14:41:04;4.50;;;4.20;;